Time;durP1;ratioP1;P1;durP2;ratioP2;P2;SDS_P1;SDS_P2;PMS_P1;PMS_P2;Temp;Humidity;BMP_temperature;BMP_pressure;BME280_temperature;BME280_humidity;BME280_pressure;Samples;Min_cycle;Max_cycle;Signal;HPM_P1;HPM_P2
2022/10/06 00:01:37;;;;;;;1999.90;999.90;;;13.90;99.90;;;;;;5032204;28;20595;-66
2022/10/06 00:04:03;;;;;;;1999.90;999.90;;;13.90;99.90;;;;;;5034206;28;20190;-66
2022/10/06 00:06:29;;;;;;;1999.90;999.90;;;13.90;99.90;;;;;;5034769;28;20183;-67
2022/10/06 00:08:54;;;;;;;1999.90;999.90;;;13.90;99.90;;;;;;5031931;28;20247;-66
2022/10/06 00:11:20;;;;;;;1999.90;999.90;;;14.00;99.90;;;;;;5032046;28;20168;-67
2022/10/06 00:13:46;;;;;;;1999.90;999.90;;;14.10;99.90;;;;;;5032016;28;20668;-66
2022/10/06 00:16:16;;;;;;;1999.90;999.90;;;14.10;99.90;;;;;;5031860;28;20445;-66
2022/10/06 00:18:42;;;;;;;1999.90;999.90;;;14.10;99.90;;;;;;5031755;28;20175;-66
2022/10/06 00:21:08;;;;;;;1999.90;999.90;;;14.10;99.90;;;;;;5031911;28;20412;-67
2022/10/06 00:23:33;;;;;;;1999.90;999.90;;;14.20;99.90;;;;;;5031870;28;20430;-67
2022/10/06 00:25:59;;;;;;;1999.90;999.90;;;14.20;99.90;;;;;;5031829;28;20878;-66
2022/10/06 00:28:25;;;;;;;1999.90;999.90;;;14.30;99.90;;;;;;5031722;28;20170;-66
2022/10/06 00:30:52;;;;;;;1999.90;999.90;;;14.30;99.90;;;;;;5031881;28;20176;-66
2022/10/06 00:33:18;;;;;;;1999.90;999.90;;;14.30;99.90;;;;;;5031871;28;20184;-66
2022/10/06 00:35:44;;;;;;;1999.90;999.90;;;14.30;99.90;;;;;;5030595;28;20423;-65
2022/10/06 00:38:11;;;;;;;1999.90;999.90;;;14.40;99.90;;;;;;5031732;28;20405;-66
2022/10/06 00:40:47;;;;;;;1999.90;999.90;;;14.40;99.90;;;;;;5031884;28;20753;-66
2022/10/06 00:43:40;;;;;;;1999.90;999.90;;;14.40;99.90;;;;;;5034764;28;20497;-67
2022/10/06 00:46:28;;;;;;;1999.90;999.90;;;14.40;99.90;;;;;;5037127;28;20486;-67
2022/10/06 00:49:04;;;;;;;1999.90;999.90;;;14.40;99.90;;;;;;5031499;28;20449;-66
2022/10/06 00:51:32;;;;;;;1999.90;999.90;;;14.30;99.90;;;;;;5031855;28;20461;-66
2022/10/06 00:53:59;;;;;;;1999.90;999.90;;;14.30;99.90;;;;;;5031430;28;20449;-66
2022/10/06 00:56:25;;;;;;;1999.90;999.90;;;14.30;99.90;;;;;;5031421;28;20455;-66
2022/10/06 00:58:50;;;;;;;1999.90;999.90;;;14.30;99.90;;;;;;5031459;28;20836;-66
2022/10/06 01:01:16;;;;;;;1999.90;999.90;;;14.40;99.90;;;;;;5032697;28;20257;-66
2022/10/06 01:03:49;;;;;;;1999.90;999.90;;;14.30;99.90;;;;;;5035290;28;20590;-66
2022/10/06 01:06:15;;;;;;;1999.90;999.90;;;14.30;99.90;;;;;;5035253;28;20176;-66
2022/10/06 01:08:41;;;;;;;1999.90;999.90;;;14.30;99.90;;;;;;5035104;28;20467;-66
2022/10/06 01:11:14;;;;;;;1999.90;999.90;;;14.30;99.90;;;;;;5035267;28;20172;-66
2022/10/06 01:13:42;;;;;;;1999.90;999.90;;;14.30;99.90;;;;;;5035165;28;20201;-66
2022/10/06 01:16:23;;;;;;;1999.90;999.90;;;14.30;99.90;;;;;;5035108;28;20512;-67
2022/10/06 01:18:49;;;;;;;1999.90;999.90;;;14.30;99.90;;;;;;5038230;28;20409;-67
2022/10/06 01:21:27;;;;;;;1999.90;999.90;;;14.20;99.90;;;;;;5039140;28;20908;-66
2022/10/06 01:23:53;;;;;;;1999.90;999.90;;;14.20;99.90;;;;;;5036440;28;20957;-66
2022/10/06 01:26:21;;;;;;;1999.90;999.90;;;14.20;99.90;;;;;;5034894;28;20402;-66
2022/10/06 01:28:47;;;;;;;1999.90;999.90;;;14.20;99.90;;;;;;5034715;28;20409;-66
2022/10/06 01:31:14;;;;;;;1999.90;999.90;;;14.20;99.90;;;;;;5034996;28;20437;-67
2022/10/06 01:33:40;;;;;;;1999.90;999.90;;;14.20;99.90;;;;;;5034730;28;20449;-67
2022/10/06 01:36:06;;;;;;;1999.90;999.90;;;14.10;99.90;;;;;;5034776;28;20470;-67
2022/10/06 01:38:32;;;;;;;1999.90;999.90;;;14.10;99.90;;;;;;5034558;28;20493;-67
2022/10/06 01:40:58;;;;;;;1999.90;999.90;;;14.00;99.90;;;;;;5034797;28;20408;-66
2022/10/06 01:43:23;;;;;;;1999.90;999.90;;;14.10;99.90;;;;;;5034941;28;20182;-67
2022/10/06 01:45:56;;;;;;;1999.90;999.90;;;14.00;99.90;;;;;;5038925;28;20202;-66
2022/10/06 01:48:23;;;;;;;1999.90;999.90;;;14.00;99.90;;;;;;5038958;28;20175;-66
2022/10/06 01:50:49;;;;;;;1999.90;999.90;;;14.00;99.90;;;;;;5034549;28;20410;-66
2022/10/06 01:53:15;;;;;;;1999.90;999.90;;;14.00;99.90;;;;;;5034302;28;20540;-66
2022/10/06 01:55:40;;;;;;;1999.90;999.90;;;14.00;99.90;;;;;;5034443;28;20498;-66
2022/10/06 01:58:06;;;;;;;1999.90;999.90;;;14.00;99.90;;;;;;5034241;28;20167;-67
2022/10/06 02:00:32;;;;;;;1999.90;999.90;;;14.00;99.90;;;;;;5034367;28;20244;-67
2022/10/06 02:02:58;;;;;;;1999.90;999.90;;;14.00;99.90;;;;;;5033018;28;20470;-67
2022/10/06 02:05:23;;;;;;;1999.90;999.90;;;14.00;99.90;;;;;;5034495;28;20176;-67
2022/10/06 02:07:49;;;;;;;1999.90;999.90;;;14.00;99.90;;;;;;5033933;28;20185;-67
2022/10/06 02:10:14;;;;;;;1999.90;999.90;;;13.90;99.90;;;;;;5034171;28;20178;-67
2022/10/06 02:12:41;;;;;;;1999.90;999.90;;;13.90;99.90;;;;;;5034253;28;20181;-67
2022/10/06 02:15:09;;;;;;;1999.90;999.90;;;13.90;99.90;;;;;;5038450;28;20585;-66
2022/10/06 02:17:36;;;;;;;1999.90;999.90;;;13.80;99.90;;;;;;5037483;28;20454;-66
2022/10/06 02:20:03;;;;;;;1999.90;999.90;;;13.70;99.90;;;;;;5034207;28;20770;-66
2022/10/06 02:22:28;;;;;;;1999.90;999.90;;;13.70;99.90;;;;;;5033884;28;20417;-67
2022/10/06 02:24:54;;;;;;;1999.90;999.90;;;13.70;99.90;;;;;;5033877;28;20795;-66
2022/10/06 02:27:19;;;;;;;1999.90;999.90;;;13.70;99.90;;;;;;5033739;28;20178;-66
2022/10/06 02:29:45;;;;;;;1999.90;999.90;;;13.60;99.90;;;;;;5033689;28;20539;-67
2022/10/06 02:32:11;;;;;;;1999.90;999.90;;;13.60;99.90;;;;;;5037593;28;20174;-68
2022/10/06 02:34:36;;;;;;;1999.90;999.90;;;13.60;99.90;;;;;;5037940;28;20188;-67
2022/10/06 02:37:02;;;;;;;1999.90;999.90;;;13.60;99.90;;;;;;5035046;28;20200;-67
2022/10/06 02:39:27;;;;;;;1999.90;999.90;;;13.50;99.90;;;;;;5033682;28;20641;-67
2022/10/06 02:41:53;;;;;;;1999.90;999.90;;;13.50;99.90;;;;;;5033610;28;20232;-68
2022/10/06 02:44:18;;;;;;;1999.90;999.90;;;13.50;99.90;;;;;;5033465;28;20204;-67
2022/10/06 02:46:44;;;;;;;1999.90;999.90;;;13.40;99.90;;;;;;5033262;28;20174;-67
2022/10/06 02:49:10;;;;;;;1999.90;999.90;;;13.40;99.90;;;;;;5033427;28;20745;-66
2022/10/06 02:51:35;;;;;;;1999.90;999.90;;;13.40;99.90;;;;;;5033355;28;20192;-66
2022/10/06 02:54:01;;;;;;;1999.90;999.90;;;13.30;99.90;;;;;;5033240;28;20212;-66
2022/10/06 02:56:26;;;;;;;1999.90;999.90;;;13.30;99.90;;;;;;5033133;28;20284;-66
2022/10/06 02:58:53;;;;;;;1999.90;999.90;;;13.20;99.90;;;;;;5033008;28;20634;-66
2022/10/06 03:01:24;;;;;;;1999.90;999.90;;;13.20;99.90;;;;;;5033125;28;20224;-67
2022/10/06 03:03:50;;;;;;;1999.90;999.90;;;13.10;99.90;;;;;;5033045;28;20424;-66
2022/10/06 03:06:20;;;;;;;1999.90;999.90;;;13.10;99.90;;;;;;5033021;28;20405;-66
2022/10/06 03:08:54;;;;;;;1999.90;999.90;;;13.10;99.90;;;;;;5032911;28;20173;-66
2022/10/06 03:11:23;;;;;;;1999.90;999.90;;;13.10;99.90;;;;;;5032974;28;20428;-66
2022/10/06 03:13:50;;;;;;;1999.90;999.90;;;13.00;99.90;;;;;;5032968;28;20653;-66
2022/10/06 03:16:27;;;;;;;1999.90;999.90;;;13.00;99.90;;;;;;5032830;28;20454;-66
2022/10/06 03:18:54;;;;;;;1999.90;999.90;;;13.00;99.90;;;;;;5032683;28;20808;-66
2022/10/06 03:21:22;;;;;;;1999.90;999.90;;;13.00;99.90;;;;;;5032813;28;20450;-66
2022/10/06 03:23:49;;;;;;;1999.90;999.90;;;13.00;99.90;;;;;;5031984;28;20521;-67
2022/10/06 03:26:18;;;;;;;1999.90;999.90;;;13.00;99.90;;;;;;5032631;28;20439;-66
2022/10/06 03:28:44;;;;;;;1999.90;999.90;;;13.00;99.90;;;;;;5037067;28;20412;-68
2022/10/06 03:31:10;;;;;;;1999.90;999.90;;;13.00;99.90;;;;;;5036303;28;20404;-66
2022/10/06 03:33:35;;;;;;;1999.90;999.90;;;13.00;99.90;;;;;;5032563;28;20439;-67
2022/10/06 03:36:05;;;;;;;1999.90;999.90;;;13.00;99.90;;;;;;5036020;28;20192;-68
2022/10/06 03:38:31;;;;;;;1999.90;999.90;;;12.90;99.90;;;;;;5035482;28;20675;-67
2022/10/06 03:41:11;;;;;;;1999.90;999.90;;;13.00;99.90;;;;;;5032575;28;20396;-67
2022/10/06 03:43:38;;;;;;;1999.90;999.90;;;12.90;99.90;;;;;;5032502;28;20795;-68
2022/10/06 03:46:04;;;;;;;1999.90;999.90;;;12.90;99.90;;;;;;5032264;28;20395;-67
2022/10/06 03:48:32;;;;;;;1999.90;999.90;;;12.90;99.90;;;;;;5032201;28;20407;-68
2022/10/06 03:51:06;;;;;;;1999.90;999.90;;;12.90;99.90;;;;;;5032284;28;20399;-67
2022/10/06 03:53:33;;;;;;;1999.90;999.90;;;12.80;99.90;;;;;;5035221;28;20447;-68
2022/10/06 03:56:03;;;;;;;1999.90;999.90;;;12.80;99.90;;;;;;5036294;28;20458;-67
2022/10/06 03:58:29;;;;;;;1999.90;999.90;;;12.80;99.90;;;;;;5034699;28;20462;-68
2022/10/06 04:01:07;;;;;;;1999.90;999.90;;;12.70;99.90;;;;;;5037113;28;20459;-67
2022/10/06 04:03:33;;;;;;;1999.90;999.90;;;12.70;99.90;;;;;;5037064;28;20415;-67
2022/10/06 04:06:01;;;;;;;1999.90;999.90;;;12.60;99.90;;;;;;5032288;28;20400;-67
2022/10/06 04:08:28;;;;;;;1999.90;999.90;;;12.60;99.90;;;;;;5032043;28;20416;-66
2022/10/06 04:10:54;;;;;;;1999.90;999.90;;;12.60;99.90;;;;;;5032085;28;20439;-67
2022/10/06 04:13:21;;;;;;;1999.90;999.90;;;12.50;99.90;;;;;;5032021;28;20466;-67
2022/10/06 04:15:47;;;;;;;1999.90;999.90;;;12.50;99.90;;;;;;5035962;28;20407;-68
2022/10/06 04:18:14;;;;;;;1999.90;999.90;;;12.50;99.90;;;;;;5032093;28;20411;-68
2022/10/06 04:20:40;;;;;;;1999.90;999.90;;;12.50;99.90;;;;;;5031962;28;20400;-66
2022/10/06 04:23:06;;;;;;;1999.90;999.90;;;12.40;99.90;;;;;;5031860;28;20547;-67
2022/10/06 04:25:33;;;;;;;1999.90;999.90;;;12.40;99.90;;;;;;5031879;28;20410;-67
2022/10/06 04:27:59;;;;;;;1999.90;999.90;;;12.30;99.90;;;;;;5035029;28;20825;-68
2022/10/06 04:30:25;;;;;;;1999.90;999.90;;;12.30;99.90;;;;;;5035325;28;20413;-67
2022/10/06 04:32:51;;;;;;;1999.90;999.90;;;12.20;99.90;;;;;;5031883;28;20774;-67
2022/10/06 04:35:17;;;;;;;1999.90;999.90;;;12.10;99.90;;;;;;5033145;28;20418;-68
2022/10/06 04:37:42;;;;;;;1999.90;999.90;;;12.20;99.90;;;;;;5035518;28;21046;-68
2022/10/06 04:40:09;;;;;;;1999.90;999.90;;;12.10;99.90;;;;;;5037766;28;20258;-68
2022/10/06 04:42:35;;;;;;;1999.90;999.90;;;12.10;99.90;;;;;;5039509;28;20201;-68
2022/10/06 04:45:02;;;;;;;1999.90;999.90;;;12.00;99.90;;;;;;5035901;28;20487;-68
2022/10/06 04:47:28;;;;;;;1999.90;999.90;;;12.00;99.90;;;;;;5035604;28;20493;-67
2022/10/06 04:49:53;;;;;;;1999.90;999.90;;;12.00;99.90;;;;;;5035663;28;20506;-67
2022/10/06 04:52:19;;;;;;;1999.90;999.90;;;12.00;99.90;;;;;;5037492;28;20185;-68
2022/10/06 04:54:44;;;;;;;1999.90;999.90;;;12.00;99.90;;;;;;5039248;28;20239;-67
2022/10/06 04:57:10;;;;;;;1999.90;999.90;;;12.00;99.90;;;;;;5037641;28;20220;-67
2022/10/06 05:02:20;;;;;;;1999.90;999.90;;;11.90;99.90;;;;;;5035536;28;20530;-66
2022/10/06 05:04:45;;;;;;;1999.90;999.90;;;11.80;99.90;;;;;;5035682;28;20423;-67
2022/10/06 05:07:11;;;;;;;1999.90;999.90;;;11.80;99.90;;;;;;5035643;28;20704;-67
2022/10/06 05:09:36;;;;;;;1999.90;999.90;;;11.80;99.90;;;;;;5037559;28;20176;-67
2022/10/06 05:12:02;;;;;;;1999.90;999.90;;;11.70;99.90;;;;;;5035247;28;20217;-67
2022/10/06 05:14:28;;;;;;;1999.90;999.90;;;11.80;99.90;;;;;;5035211;28;20666;-66
2022/10/06 05:16:53;;;;;;;1999.90;999.90;;;11.70;99.90;;;;;;5034860;28;20358;-66
2022/10/06 05:19:19;;;;;;;1999.90;999.90;;;11.80;99.90;;;;;;5035041;28;20172;-67
2022/10/06 05:21:44;;;;;;;1999.90;999.90;;;11.80;99.90;;;;;;5035152;28;20173;-66
2022/10/06 05:24:10;;;;;;;1999.90;999.90;;;11.80;99.90;;;;;;5034955;28;20558;-67
2022/10/06 05:26:36;;;;;;;1999.90;999.90;;;11.90;99.90;;;;;;5034766;28;20215;-67
2022/10/06 05:29:02;;;;;;;1999.90;999.90;;;11.80;99.90;;;;;;5034868;28;20255;-67
2022/10/06 05:31:37;;;;;;;1999.90;999.90;;;11.80;99.90;;;;;;5037263;28;20433;-67
2022/10/06 05:34:03;;;;;;;1999.90;999.90;;;11.70;99.90;;;;;;5035322;28;20423;-67
2022/10/06 05:36:32;;;;;;;1999.90;999.90;;;11.80;99.90;;;;;;5034674;28;20447;-68
2022/10/06 05:38:59;;;;;;;1999.90;999.90;;;11.70;99.90;;;;;;5034744;28;20160;-66
2022/10/06 05:41:27;;;;;;;1999.90;999.90;;;11.70;99.90;;;;;;5034724;28;20523;-66
2022/10/06 05:43:53;;;;;;;1999.90;999.90;;;11.60;99.90;;;;;;5034663;28;20431;-67
2022/10/06 05:46:27;;;;;;;1999.90;999.90;;;11.60;99.90;;;;;;5034345;28;20411;-67
2022/10/06 05:48:55;;;;;;;1999.90;999.90;;;11.60;99.90;;;;;;5034308;28;20754;-67
2022/10/06 05:51:23;;;;;;;1999.90;999.90;;;11.50;99.90;;;;;;5034567;28;20413;-66
2022/10/06 05:53:49;;;;;;;1999.90;999.90;;;11.50;99.90;;;;;;5056066;22;20498;-70
2022/10/06 05:56:17;;;;;;;1999.90;999.90;;;11.50;99.90;;;;;;5054427;28;20454;-71
2022/10/06 05:58:46;;;;;;;1999.90;999.90;;;11.50;99.90;;;;;;5054337;28;20164;-70
2022/10/06 06:01:22;;;;;;;1999.90;999.90;;;11.40;99.90;;;;;;5054530;28;20773;-71
2022/10/06 06:03:51;;;;;;;1999.90;999.90;;;11.50;99.90;;;;;;5054426;28;20417;-71
2022/10/06 06:06:26;;;;;;;1999.90;999.90;;;11.50;99.90;;;;;;5054277;28;20473;-70
2022/10/06 06:08:56;;;;;;;1999.90;999.90;;;11.50;99.90;;;;;;5054477;28;20968;-71
2022/10/06 06:11:26;;;;;;;1999.90;999.90;;;11.40;99.90;;;;;;5054251;28;20430;-71
2022/10/06 06:13:54;;;;;;;1999.90;999.90;;;11.50;99.90;;;;;;5054260;28;20430;-71
2022/10/06 06:16:20;;;;;;;1999.90;999.90;;;11.60;99.90;;;;;;5054038;28;20466;-71
2022/10/06 06:18:45;;;;;;;1999.90;999.90;;;11.60;99.90;;;;;;5053863;28;20418;-71
2022/10/06 06:21:11;;;;;;;1999.90;999.90;;;11.60;99.90;;;;;;5054305;28;20203;-71
2022/10/06 06:23:40;;;;;;;1999.90;999.90;;;11.60;99.90;;;;;;5053796;28;20191;-71
2022/10/06 06:26:10;;;;;;;1999.90;999.90;;;11.60;99.90;;;;;;5053796;28;20263;-71
2022/10/06 06:28:36;;;;;;;1999.90;999.90;;;11.60;99.90;;;;;;5053674;28;20402;-70
2022/10/06 06:31:12;;;;;;;1999.90;999.90;;;11.70;99.90;;;;;;5053798;28;20402;-71
2022/10/06 06:33:39;;;;;;;1999.90;999.90;;;11.70;99.90;;;;;;5053593;28;20458;-71
2022/10/06 06:36:25;;;;;;;1999.90;999.90;;;11.60;99.90;;;;;;5053694;28;20454;-71
2022/10/06 06:38:55;;;;;;;1999.90;999.90;;;11.60;99.90;;;;;;5053607;28;20481;-71
2022/10/06 06:41:24;;;;;;;1999.90;999.90;;;11.70;99.90;;;;;;5053547;28;20414;-71
2022/10/06 06:43:51;;;;;;;1999.90;999.90;;;11.70;99.90;;;;;;5053451;28;20429;-71
2022/10/06 06:46:19;;;;;;;1999.90;999.90;;;11.70;99.90;;;;;;5053563;28;20463;-72
2022/10/06 06:48:46;;;;;;;1999.90;999.90;;;11.70;99.90;;;;;;5043484;28;20423;-72
2022/10/06 06:51:12;;;;;;;1999.90;999.90;;;11.80;99.90;;;;;;5033678;28;20411;-71
2022/10/06 06:53:39;;;;;;;1999.90;999.90;;;11.80;99.90;;;;;;5033444;28;20918;-70
2022/10/06 06:56:07;;;;;;;1999.90;999.90;;;11.90;99.90;;;;;;5033264;28;20458;-71
2022/10/06 06:58:35;;;;;;;1999.90;999.90;;;12.00;99.90;;;;;;5032362;28;20408;-71
2022/10/06 07:01:05;;;;;;;1999.90;999.90;;;12.00;99.90;;;;;;5033263;28;20450;-71
2022/10/06 07:03:31;;;;;;;1999.90;999.90;;;12.00;99.90;;;;;;5033245;28;20770;-71
2022/10/06 07:06:08;;;;;;;1999.90;999.90;;;12.10;99.90;;;;;;5033057;28;20415;-71
2022/10/06 07:08:42;;;;;;;1999.90;999.90;;;12.10;99.90;;;;;;5033069;28;20666;-71
2022/10/06 07:11:14;;;;;;;1999.90;999.90;;;12.20;99.90;;;;;;5032992;28;20871;-71
2022/10/06 07:13:41;;;;;;;1999.90;999.90;;;12.30;99.90;;;;;;5032891;28;20439;-69
2022/10/06 07:27:10;;;;;;;1999.90;999.90;;;12.50;99.90;;;;;;5032678;28;20443;-71
2022/10/06 07:29:35;;;;;;;1999.90;999.90;;;12.50;99.90;;;;;;5032631;28;20411;-71
2022/10/06 07:32:01;;;;;;;1999.90;999.90;;;12.50;99.90;;;;;;5032691;28;20413;-71
2022/10/06 07:34:29;;;;;;;1999.90;999.90;;;12.60;99.90;;;;;;5032698;28;20192;-71
2022/10/06 07:36:55;;;;;;;1999.90;999.90;;;12.70;99.90;;;;;;5032527;28;21041;-71
2022/10/06 07:39:21;;;;;;;1999.90;999.90;;;12.70;99.90;;;;;;5032299;28;20408;-71
2022/10/06 07:41:46;;;;;;;1999.90;999.90;;;12.80;99.90;;;;;;5032470;28;20422;-71
2022/10/06 07:44:12;;;;;;;1999.90;999.90;;;12.80;99.90;;;;;;5032417;28;20757;-71
2022/10/06 07:46:38;;;;;;;1999.90;999.90;;;12.80;99.90;;;;;;5032238;28;20787;-71
2022/10/06 07:49:03;;;;;;;1999.90;999.90;;;12.90;99.90;;;;;;5032377;28;20177;-71
2022/10/06 07:51:29;;;;;;;1999.90;999.90;;;12.90;99.90;;;;;;5032459;28;20184;-71
2022/10/06 07:53:54;;;;;;;1999.90;999.90;;;13.00;99.90;;;;;;5032101;28;20220;-71
2022/10/06 07:56:20;;;;;;;1999.90;999.90;;;13.10;99.90;;;;;;5032112;28;20205;-71
2022/10/06 07:58:47;;;;;;;1999.90;999.90;;;13.10;99.90;;;;;;5032135;28;20172;-71
2022/10/06 08:01:15;;;;;;;1999.90;999.90;;;13.10;99.90;;;;;;5032453;28;20186;-71
2022/10/06 08:03:43;;;;;;;1999.90;999.90;;;13.10;99.90;;;;;;5032216;28;20440;-71
2022/10/06 08:06:12;;;;;;;1999.90;999.90;;;13.20;99.90;;;;;;5032046;28;20425;-71
2022/10/06 08:08:39;;;;;;;1999.90;999.90;;;13.20;99.90;;;;;;5031821;28;20408;-71
2022/10/06 08:11:06;;;;;;;1999.90;999.90;;;13.30;99.90;;;;;;5031834;28;20435;-71
2022/10/06 08:13:34;;;;;;;1999.90;999.90;;;13.40;99.90;;;;;;5031558;28;20527;-71
2022/10/06 08:16:09;;;;;;;1999.90;999.90;;;13.50;99.90;;;;;;5031838;28;20420;-71
2022/10/06 08:18:35;;;;;;;1999.90;999.90;;;13.50;99.90;;;;;;5031808;28;20430;-71
2022/10/06 08:21:12;;;;;;;1999.90;999.90;;;13.60;99.90;;;;;;5031914;28;20439;-71
2022/10/06 08:23:39;;;;;;;1999.90;999.90;;;13.60;99.90;;;;;;5032297;28;20422;-71
2022/10/06 08:26:05;;;;;;;1999.90;999.90;;;13.70;99.90;;;;;;5031729;28;20902;-71
2022/10/06 08:28:31;;;;;;;1999.90;999.90;;;13.70;99.90;;;;;;5031681;28;20418;-71
2022/10/06 08:30:57;;;;;;;1999.90;999.90;;;13.80;99.90;;;;;;5031854;28;20412;-71
2022/10/06 08:33:22;;;;;;;1999.90;999.90;;;13.90;99.90;;;;;;5031797;28;20201;-71
2022/10/06 08:35:48;;;;;;;1999.90;999.90;;;13.90;99.90;;;;;;5031707;28;20657;-71
2022/10/06 08:38:13;;;;;;;1999.90;999.90;;;13.90;99.90;;;;;;5031542;28;20166;-71
2022/10/06 08:40:42;;;;;;;1999.90;999.90;;;14.00;99.90;;;;;;5031733;28;20183;-71
2022/10/06 08:43:16;;;;;;;1999.90;999.90;;;14.00;99.90;;;;;;5031609;28;20177;-73
2022/10/06 08:45:44;;;;;;;1999.90;999.90;;;14.10;99.90;;;;;;5031839;28;20411;-71
2022/10/06 08:48:15;;;;;;;1999.90;999.90;;;14.20;99.90;;;;;;5031494;28;20842;-70
2022/10/06 08:51:13;;;;;;;1999.90;999.90;;;14.20;99.90;;;;;;5031741;28;20411;-71
2022/10/06 08:54:08;;;;;;;1999.90;999.90;;;14.30;99.90;;;;;;5031619;28;20457;-70
2022/10/06 08:57:07;;;;;;;1999.90;999.90;;;14.40;99.90;;;;;;5022250;28;20466;-70
2022/10/06 08:59:34;;;;;;;1999.90;999.90;;;14.40;99.90;;;;;;5031327;28;20505;-70
2022/10/06 09:02:04;;;;;;;1999.90;999.90;;;14.50;99.90;;;;;;5031549;28;20421;-70
2022/10/06 09:04:32;;;;;;;1999.90;999.90;;;14.60;99.90;;;;;;5031380;28;20425;-70
2022/10/06 09:07:11;;;;;;;1999.90;999.90;;;14.70;99.90;;;;;;5031273;28;20416;-70
2022/10/06 09:10:01;;;;;;;1999.90;999.90;;;14.70;99.90;;;;;;5031407;28;20409;-71
2022/10/06 09:12:41;;;;;;;1999.90;999.90;;;14.80;99.90;;;;;;5031412;28;20472;-70
2022/10/06 09:15:06;;;;;;;1999.90;999.90;;;14.90;99.90;;;;;;5031414;28;20495;-71
2022/10/06 09:17:39;;;;;;;1999.90;999.90;;;15.00;99.90;;;;;;5031066;28;20459;-70
2022/10/06 09:20:19;;;;;;;1999.90;999.90;;;15.00;99.90;;;;;;5031324;28;20164;-70
2022/10/06 09:22:47;;;;;;;1999.90;999.90;;;15.00;99.90;;;;;;5033314;28;20414;-71
2022/10/06 09:25:20;;;;;;;1999.90;999.90;;;15.10;99.90;;;;;;5034895;28;20437;-70
2022/10/06 09:27:50;;;;;;;1999.90;999.90;;;15.20;99.90;;;;;;5034655;28;20424;-70
2022/10/06 09:30:16;;;;;;;1999.90;999.90;;;15.20;99.90;;;;;;5034992;28;20413;-70
2022/10/06 09:33:15;;;;;;;1999.90;999.90;;;15.30;99.90;;;;;;5034810;28;20492;-70
2022/10/06 09:36:05;;;;;;;1999.90;999.90;;;15.30;99.90;;;;;;5034489;28;20419;-70
2022/10/06 09:38:54;;;;;;;1999.90;999.90;;;15.30;99.90;;;;;;5034600;28;20415;-70
2022/10/06 09:41:44;;;;;;;1999.90;999.90;;;15.30;99.90;;;;;;5034738;28;20408;-70
2022/10/06 09:44:26;;;;;;;1999.90;999.90;;;15.40;99.90;;;;;;5034602;28;20418;-70
2022/10/06 09:46:52;;;;;;;1999.90;999.90;;;15.40;99.90;;;;;;5034438;28;20459;-70
2022/10/06 09:49:26;;;;;;;1999.90;999.90;;;15.50;99.90;;;;;;5034494;28;20829;-70
2022/10/06 09:51:57;;;;;;;1999.90;999.90;;;15.60;99.90;;;;;;5034510;28;20740;-70
2022/10/06 09:54:23;;;;;;;1999.90;999.90;;;15.60;99.90;;;;;;5034295;28;20452;-70
2022/10/06 09:56:49;;;;;;;1999.90;999.90;;;15.70;99.90;;;;;;5034217;28;20508;-70
2022/10/06 09:59:22;;;;;;;1999.90;999.90;;;15.70;99.90;;;;;;5034363;28;20627;-70
2022/10/06 10:01:54;;;;;;;1999.90;999.90;;;15.80;99.90;;;;;;5034756;28;20180;-70
2022/10/06 10:04:31;;;;;;;1999.90;999.90;;;15.90;99.90;;;;;;5034433;28;20733;-70
2022/10/06 10:07:29;;;;;;;1999.90;999.90;;;15.90;99.90;;;;;;5034022;28;20421;-71
2022/10/06 10:10:13;;;;;;;1999.90;999.90;;;16.10;99.90;;;;;;5034209;28;20410;-70
2022/10/06 10:12:49;;;;;;;1999.90;999.90;;;16.10;99.90;;;;;;5034383;28;20402;-70
2022/10/06 10:15:17;;;;;;;1999.90;999.90;;;16.10;99.90;;;;;;5034200;28;20926;-70
2022/10/06 10:17:51;;;;;;;1999.90;999.90;;;16.20;99.90;;;;;;5033720;28;20802;-70
2022/10/06 10:20:27;;;;;;;1999.90;999.90;;;16.40;99.90;;;;;;5033974;28;20454;-70
2022/10/06 10:22:54;;;;;;;1999.90;999.90;;;16.40;99.90;;;;;;5033790;28;20414;-70
2022/10/06 10:25:57;;;;;;;1999.90;999.90;;;16.50;99.90;;;;;;5034056;28;20853;-70
2022/10/06 10:28:26;;;;;;;1999.90;999.90;;;16.50;99.90;;;;;;5033652;28;20451;-70
2022/10/06 10:31:32;;;;;;;1999.90;999.90;;;16.60;99.90;;;;;;5033720;28;20446;-70
2022/10/06 10:34:18;;;;;;;1999.90;999.90;;;16.60;99.90;;;;;;5033391;28;20798;-70
2022/10/06 10:37:07;;;;;;;1999.90;999.90;;;16.60;99.90;;;;;;5033393;28;20452;-70
2022/10/06 10:39:54;;;;;;;1999.90;999.90;;;16.60;99.90;;;;;;5033521;28;20400;-70
2022/10/06 10:42:28;;;;;;;1999.90;999.90;;;16.70;99.90;;;;;;5033626;28;20489;-70
2022/10/06 10:45:00;;;;;;;1999.90;999.90;;;16.80;99.90;;;;;;5033515;28;20445;-70
2022/10/06 10:47:37;;;;;;;1999.90;999.90;;;16.80;99.90;;;;;;5033256;28;20410;-70
2022/10/06 10:50:41;;;;;;;1999.90;999.90;;;16.90;99.90;;;;;;5033754;28;20972;-71
2022/10/06 10:53:13;;;;;;;1999.90;999.90;;;17.10;99.90;;;;;;4991270;28;20772;-70
2022/10/06 10:55:45;;;;;;;1999.90;999.90;;;17.10;99.90;;;;;;5027413;28;20826;-72
2022/10/06 10:58:35;;;;;;;1999.90;999.90;;;17.10;99.90;;;;;;5033121;28;20461;-71
2022/10/06 11:01:18;;;;;;;1999.90;999.90;;;17.20;99.90;;;;;;5033556;28;20402;-71
2022/10/06 11:03:55;;;;;;;1999.90;999.90;;;17.20;99.90;;;;;;5033311;28;20435;-70
2022/10/06 11:06:39;;;;;;;1999.90;999.90;;;17.30;99.90;;;;;;5032818;28;20406;-70
2022/10/06 11:09:49;;;;;;;1999.90;999.90;;;17.40;99.90;;;;;;5032901;28;20399;-71
2022/10/06 11:12:32;;;;;;;1999.90;999.90;;;17.40;99.90;;;;;;5031316;28;20424;-69
2022/10/06 11:15:37;;;;;;;1999.90;999.90;;;17.50;99.90;;;;;;5032952;28;20427;-69
2022/10/06 11:18:27;;;;;;;1999.90;999.90;;;17.60;99.90;;;;;;5032937;28;20492;-71
2022/10/06 11:21:00;;;;;;;1999.90;999.90;;;17.60;99.90;;;;;;5032789;28;20405;-71
2022/10/06 11:23:52;;;;;;;1999.90;999.90;;;17.80;99.90;;;;;;5033490;28;20438;-70
2022/10/06 11:26:36;;;;;;;1999.90;999.90;;;18.20;99.90;;;;;;5033654;28;20407;-70
2022/10/06 11:29:02;;;;;;;1999.90;999.90;;;18.80;99.90;;;;;;5033353;28;20403;-70
2022/10/06 11:31:50;;;;;;;1999.90;999.90;;;19.40;99.90;;;;;;5042637;28;20464;-70
2022/10/06 11:34:16;;;;;;;1999.90;999.90;;;19.90;99.10;;;;;;5053149;28;20200;-70
2022/10/06 11:36:53;;;;;;;1999.90;999.90;;;20.30;96.90;;;;;;5052879;28;20947;-71
2022/10/06 11:39:25;;;;;;;1999.90;999.90;;;20.90;96.00;;;;;;5051919;28;20401;-70
2022/10/06 11:42:11;;;;;;;1999.90;999.90;;;21.40;69.40;;;;;;5049774;28;20400;-70
2022/10/06 11:44:50;;;;;;;1999.90;999.90;;;21.60;50.00;;;;;;5051578;28;20455;-70
2022/10/06 11:47:29;;;;;;;1999.90;999.90;;;21.60;47.70;;;;;;5051758;28;20476;-70
2022/10/06 11:49:55;;;;;;;1999.90;999.90;;;21.50;51.40;;;;;;5051474;28;20508;-70
2022/10/06 11:52:21;;;;;;;1999.90;999.90;;;21.60;50.30;;;;;;5051940;28;20494;-70
2022/10/06 11:54:49;;;;;;;1999.90;999.90;;;21.90;47.60;;;;;;5051581;28;20215;-71
2022/10/06 11:57:25;;;;;;;1999.90;999.90;;;22.00;45.00;;;;;;5050840;28;20292;-70
2022/10/06 11:59:55;;;;;;;1999.90;999.90;;;22.10;41.40;;;;;;5051530;28;20403;-72
2022/10/06 12:02:36;;;;;;;1999.90;999.90;;;22.60;36.20;;;;;;5051563;28;20472;-72
2022/10/06 12:05:08;;;;;;;1999.90;999.90;;;22.80;37.30;;;;;;5050196;28;20444;-70
2022/10/06 12:07:55;;;;;;;1999.90;999.90;;;23.00;29.70;;;;;;5050391;28;20892;-70
2022/10/06 12:10:27;;;;;;;1999.90;999.90;;;23.10;30.50;;;;;;5051820;28;20912;-70
2022/10/06 12:13:08;;;;;;;1999.90;999.90;;;22.90;31.70;;;;;;5087704;23;20438;-67
2022/10/06 12:15:42;;;;;;;1999.90;999.90;;;22.90;29.70;;;;;;5051547;28;20375;-67
2022/10/06 12:18:45;;;;;;;1999.90;999.90;;;23.10;28.30;;;;;;5050589;28;20794;-68
2022/10/06 12:21:31;;;;;;;1999.90;999.90;;;23.40;26.20;;;;;;5050840;28;20411;-67
2022/10/06 12:24:17;;;;;;;1999.90;999.90;;;23.40;25.30;;;;;;5051460;28;20944;-67
2022/10/06 12:26:43;;;;;;;1999.90;999.90;;;23.40;23.10;;;;;;5050547;28;20478;-67
2022/10/06 12:29:33;;;;;;;1999.90;999.90;;;23.10;22.40;;;;;;5051156;28;20384;-67
2022/10/06 12:32:23;;;;;;;1999.90;999.90;;;23.20;22.00;;;;;;5051432;28;20174;-68